Terminal Aerodrome Forecast
Issued by NWS Sterling, VA

Current Version | Previous Version | Graphics & Text | Print | Product List | Glossary On
Versions: 1 2 3 4 5 6 7 8 9 10 11 12 13 14 15 16 17 18 19 20 21 22 23
000
FTUS41 KLWX 151700
TAFDCA
TAF
KDCA 151729Z 1518/1618 18004KT P6SM SCT050 SCT200
     FM152200 18004KT P6SM SCT050 BKN200
     FM161000 31004KT P6SM BKN050
     FM161200 33009KT P6SM BKN050
     FM161400 33010G18KT P6SM SCT050=

USA.gov is the U.S. government's official web portal to all federal, state and local government web resources and services.